Time;durP1;ratioP1;P1;durP2;ratioP2;P2;SDS_P1;SDS_P2;PMS_P1;PMS_P2;Temp;Humidity;BMP_temperature;BMP_pressure;BME280_temperature;BME280_humidity;BME280_pressure;Samples;Min_cycle;Max_cycle;Signal;HPM_P1;HPM_P2
2021/06/22 00:00:16;;;;;;;8.57;6.90;;;20.90;99.90;;;;;;5094718;28;20187;-76
2021/06/22 00:02:42;;;;;;;9.00;7.30;;;20.80;99.90;;;;;;5094400;28;20449;-76
2021/06/22 00:05:08;;;;;;;9.63;7.80;;;20.80;99.90;;;;;;5094493;28;20411;-76
2021/06/22 00:07:34;;;;;;;9.20;8.13;;;20.80;99.90;;;;;;5094392;28;20500;-76
2021/06/22 00:09:59;;;;;;;8.60;7.70;;;20.80;99.90;;;;;;5094571;28;20406;-76
2021/06/22 00:12:25;;;;;;;10.37;8.47;;;20.80;99.90;;;;;;5094303;28;20342;-76
2021/06/22 00:14:50;;;;;;;9.73;7.87;;;20.70;99.90;;;;;;5094466;28;20172;-76
2021/06/22 00:17:16;;;;;;;8.27;7.27;;;20.70;99.90;;;;;;5094518;28;20416;-76
2021/06/22 00:19:42;;;;;;;8.70;7.80;;;20.70;99.90;;;;;;5094712;28;20227;-76
2021/06/22 00:22:07;;;;;;;10.20;7.90;;;20.60;99.90;;;;;;5075950;28;20299;-76
2021/06/22 00:24:33;;;;;;;10.73;9.63;;;20.60;99.90;;;;;;5094655;28;20202;-76
2021/06/22 00:26:58;;;;;;;10.93;7.93;;;20.60;99.90;;;;;;5094468;28;20191;-76
2021/06/22 00:29:24;;;;;;;10.37;9.30;;;20.60;99.90;;;;;;5094197;28;20162;-76
2021/06/22 00:31:50;;;;;;;10.00;8.57;;;20.60;99.90;;;;;;5094451;28;20196;-76
2021/06/22 00:34:16;;;;;;;11.30;10.43;;;20.60;99.90;;;;;;5094399;28;20668;-76
2021/06/22 00:36:41;;;;;;;9.80;8.90;;;20.60;99.90;;;;;;5094253;28;20409;-76
2021/06/22 00:39:07;;;;;;;9.27;8.47;;;20.70;99.90;;;;;;5093913;28;20174;-76
2021/06/22 00:41:32;;;;;;;10.17;9.20;;;20.70;99.90;;;;;;5093806;28;20203;-76
2021/06/22 00:44:09;;;;;;;11.63;9.73;;;20.70;99.90;;;;;;5094033;28;20516;-77
2021/06/22 00:46:36;;;;;;;10.60;9.20;;;20.80;99.90;;;;;;5093369;28;20168;-76
2021/06/22 00:49:04;;;;;;;9.90;8.70;;;20.80;99.90;;;;;;5093155;28;20471;-75
2021/06/22 00:51:29;;;;;;;11.40;9.83;;;20.80;99.90;;;;;;5093581;28;20456;-77
2021/06/22 00:53:55;;;;;;;9.87;8.97;;;20.80;99.90;;;;;;5075616;28;20414;-76
2021/06/22 00:56:23;;;;;;;13.30;9.60;;;20.80;99.90;;;;;;5093531;28;20193;-75
2021/06/22 00:58:50;;;;;;;10.63;9.67;;;20.70;99.90;;;;;;5093632;28;20421;-74
2021/06/22 01:01:16;;;;;;;9.70;8.90;;;20.70;99.90;;;;;;5093395;28;20994;-76
2021/06/22 01:03:41;;;;;;;11.30;10.37;;;20.70;99.90;;;;;;5093479;28;20400;-76
2021/06/22 01:06:10;;;;;;;17.17;10.13;;;20.90;99.90;;;;;;5092310;28;20228;-76
2021/06/22 01:08:36;;;;;;;9.23;8.33;;;20.90;99.90;;;;;;5075446;28;20173;-76
2021/06/22 01:11:02;;;;;;;8.90;8.20;;;20.80;99.90;;;;;;5093443;28;20429;-76
2021/06/22 01:13:27;;;;;;;10.93;8.83;;;21.00;99.90;;;;;;5093740;28;20419;-75
2021/06/22 01:15:53;;;;;;;10.23;9.13;;;20.90;99.90;;;;;;5093590;28;20410;-75
2021/06/22 01:18:19;;;;;;;11.43;10.03;;;20.80;99.90;;;;;;5093133;28;20539;-75
2021/06/22 01:20:44;;;;;;;9.73;8.80;;;20.90;99.90;;;;;;5093222;28;20192;-75
2021/06/22 01:23:10;;;;;;;12.87;10.27;;;20.90;99.90;;;;;;5093045;28;20168;-75
2021/06/22 01:25:36;;;;;;;11.70;9.33;;;20.70;99.90;;;;;;5093002;28;20168;-75
2021/06/22 01:28:02;;;;;;;9.53;8.63;;;20.80;99.90;;;;;;5092723;28;20169;-75
2021/06/22 01:30:29;;;;;;;10.60;9.43;;;20.70;99.90;;;;;;5092827;28;20406;-75
2021/06/22 01:32:57;;;;;;;10.10;8.90;;;20.80;99.90;;;;;;5093113;28;20411;-76
2021/06/22 01:35:24;;;;;;;9.00;8.10;;;20.70;99.90;;;;;;5092743;28;20400;-76
2021/06/22 01:38:10;;;;;;;11.50;9.90;;;20.60;99.90;;;;;;5092658;28;20406;-76
2021/06/22 01:40:47;;;;;;;13.23;9.87;;;20.60;99.90;;;;;;5091952;28;20417;-76
2021/06/22 01:43:12;;;;;;;13.43;10.63;;;20.50;99.90;;;;;;5092561;28;20481;-76
2021/06/22 01:45:38;;;;;;;11.30;10.30;;;20.50;99.90;;;;;;5092432;28;20971;-75
2021/06/22 01:48:04;;;;;;;10.97;9.83;;;20.40;99.90;;;;;;5074365;28;20191;-75
2021/06/22 01:50:29;;;;;;;10.90;9.90;;;20.40;99.90;;;;;;5093227;28;20202;-75
2021/06/22 01:52:55;;;;;;;15.20;11.20;;;20.40;99.90;;;;;;5093680;28;20399;-75
2021/06/22 01:55:37;;;;;;;11.77;10.40;;;20.40;99.90;;;;;;5093921;28;20649;-76
2021/06/22 01:58:11;;;;;;;14.07;10.90;;;20.30;99.90;;;;;;5093895;28;20154;-75
2021/06/22 02:00:38;;;;;;;11.57;10.40;;;20.30;99.90;;;;;;5092813;28;20426;-75
2021/06/22 02:03:05;;;;;;;17.03;12.40;;;20.30;99.90;;;;;;5092165;28;20407;-75
2021/06/22 02:05:31;;;;;;;11.97;10.80;;;20.30;99.90;;;;;;5092430;28;20411;-74
2021/06/22 02:07:56;;;;;;;11.80;10.60;;;20.30;99.90;;;;;;5092265;28;20496;-75
2021/06/22 02:10:22;;;;;;;10.90;9.83;;;20.20;99.90;;;;;;5073836;28;20170;-76
2021/06/22 02:12:48;;;;;;;11.17;10.10;;;20.20;99.90;;;;;;5092089;28;20236;-74
2021/06/22 02:15:14;;;;;;;10.43;9.40;;;20.20;99.90;;;;;;5092067;28;20175;-75
2021/06/22 02:17:39;;;;;;;13.70;10.90;;;20.20;99.90;;;;;;5091779;28;20227;-76
2021/06/22 02:20:06;;;;;;;11.43;10.33;;;20.20;99.90;;;;;;5073538;28;20958;-75
2021/06/22 02:22:32;;;;;;;11.07;10.03;;;20.30;99.90;;;;;;5091634;28;20210;-75
2021/06/22 02:24:58;;;;;;;18.10;11.10;;;20.30;99.90;;;;;;5091899;28;20738;-75
2021/06/22 02:27:30;;;;;;;10.57;9.47;;;20.20;99.90;;;;;;5073420;28;20200;-76
2021/06/22 02:29:56;;;;;;;11.73;9.90;;;20.20;99.90;;;;;;5091728;28;20167;-76
2021/06/22 02:32:22;;;;;;;10.13;9.17;;;20.20;99.90;;;;;;5091510;28;20520;-75
2021/06/22 02:34:49;;;;;;;11.00;10.00;;;20.10;99.90;;;;;;5091365;28;20413;-76
2021/06/22 02:37:15;;;;;;;14.60;10.60;;;20.20;99.90;;;;;;5091459;28;20929;-75
2021/06/22 02:39:40;;;;;;;13.07;10.90;;;20.20;99.90;;;;;;5091694;28;20409;-75
2021/06/22 02:42:06;;;;;;;11.30;10.20;;;20.10;99.90;;;;;;5091522;28;20455;-75
2021/06/22 02:44:32;;;;;;;11.20;10.30;;;20.20;99.90;;;;;;5091488;28;20167;-75
2021/06/22 02:46:58;;;;;;;11.07;10.07;;;20.10;99.90;;;;;;5073252;28;20170;-75
2021/06/22 02:49:23;;;;;;;11.43;10.50;;;20.10;99.90;;;;;;5091183;28;20492;-75
2021/06/22 02:51:49;;;;;;;11.40;9.60;;;20.20;99.90;;;;;;5091091;28;20700;-75
2021/06/22 02:54:14;;;;;;;8.97;8.07;;;20.20;99.90;;;;;;5091302;28;20169;-75
2021/06/22 02:56:40;;;;;;;9.40;8.60;;;20.10;99.90;;;;;;5091150;28;20175;-75
2021/06/22 02:59:05;;;;;;;11.27;10.10;;;20.00;99.90;;;;;;5091304;28;20168;-76
2021/06/22 03:01:31;;;;;;;11.70;10.50;;;19.90;99.90;;;;;;5090951;28;20197;-75
2021/06/22 03:03:56;;;;;;;12.67;11.43;;;19.90;99.90;;;;;;5091068;28;20540;-75
2021/06/22 03:06:22;;;;;;;11.60;10.70;;;19.90;99.90;;;;;;5072980;28;20197;-75
2021/06/22 03:08:47;;;;;;;11.00;10.00;;;20.00;99.90;;;;;;5091375;28;20175;-75
2021/06/22 03:11:13;;;;;;;11.17;10.23;;;20.00;99.90;;;;;;5090514;28;20573;-75
2021/06/22 03:13:38;;;;;;;10.50;9.17;;;20.00;99.90;;;;;;5091176;28;20173;-75
2021/06/22 03:16:04;;;;;;;10.47;9.50;;;19.90;99.90;;;;;;5091256;28;20166;-76
2021/06/22 03:18:30;;;;;;;13.07;11.33;;;19.90;99.90;;;;;;5090857;28;20178;-75
2021/06/22 03:20:55;;;;;;;12.67;11.57;;;19.90;99.90;;;;;;5072751;28;20518;-75
2021/06/22 03:23:21;;;;;;;12.43;11.33;;;19.90;99.90;;;;;;5091236;28;20162;-74
2021/06/22 03:25:46;;;;;;;13.20;10.70;;;20.00;99.90;;;;;;5092675;28;20170;-75
2021/06/22 03:28:12;;;;;;;12.53;11.33;;;19.90;99.90;;;;;;5075534;28;20165;-76
2021/06/22 03:30:37;;;;;;;12.07;10.97;;;19.80;99.90;;;;;;5092407;28;20220;-75
2021/06/22 03:33:03;;;;;;;13.37;11.80;;;19.90;99.90;;;;;;5092044;28;20159;-75
2021/06/22 03:35:29;;;;;;;12.37;11.17;;;19.90;99.90;;;;;;5092379;28;20172;-75
2021/06/22 03:37:55;;;;;;;14.77;13.30;;;19.90;99.90;;;;;;5090934;28;20214;-75
2021/06/22 03:40:21;;;;;;;13.93;11.90;;;19.80;99.90;;;;;;5090972;28;20405;-76
2021/06/22 03:42:47;;;;;;;17.47;13.80;;;19.80;99.90;;;;;;5091085;28;20448;-76
2021/06/22 03:45:14;;;;;;;13.70;12.40;;;19.60;99.90;;;;;;5091258;28;20499;-75
2021/06/22 03:47:40;;;;;;;14.33;12.70;;;19.80;99.90;;;;;;5090689;28;20173;-76
2021/06/22 03:50:07;;;;;;;13.93;12.63;;;19.70;99.90;;;;;;5091211;28;20571;-75
2021/06/22 03:52:33;;;;;;;12.53;11.23;;;19.60;99.90;;;;;;5090550;28;20449;-75
2021/06/22 03:54:59;;;;;;;13.37;12.10;;;19.60;99.90;;;;;;5072711;28;20405;-75
2021/06/22 03:57:24;;;;;;;12.90;11.73;;;19.70;99.90;;;;;;5090767;28;20213;-75
2021/06/22 03:59:51;;;;;;;12.33;10.70;;;19.70;99.90;;;;;;5091117;28;20173;-75
2021/06/22 04:02:17;;;;;;;13.57;11.57;;;19.80;99.90;;;;;;5090686;28;20206;-75
2021/06/22 04:04:43;;;;;;;12.70;11.30;;;19.80;99.90;;;;;;5090722;28;20438;-75
2021/06/22 04:07:09;;;;;;;13.93;11.30;;;19.70;99.90;;;;;;5090633;28;20479;-75
2021/06/22 04:09:34;;;;;;;16.07;12.60;;;19.70;99.90;;;;;;5090626;28;20185;-75
2021/06/22 04:12:00;;;;;;;13.97;12.47;;;19.70;99.90;;;;;;5072596;28;20197;-75
2021/06/22 04:14:25;;;;;;;15.00;12.40;;;19.80;99.90;;;;;;5090576;28;20163;-75
2021/06/22 04:16:51;;;;;;;14.03;12.50;;;19.80;99.90;;;;;;5072353;28;20174;-75
2021/06/22 04:19:16;;;;;;;19.97;13.57;;;19.80;99.90;;;;;;5090891;28;20176;-75
2021/06/22 04:21:42;;;;;;;15.70;12.33;;;19.80;99.90;;;;;;5091481;28;20202;-75
2021/06/22 04:24:08;;;;;;;15.57;12.23;;;19.70;99.90;;;;;;5094702;28;20177;-75
2021/06/22 04:26:33;;;;;;;14.43;12.80;;;19.60;99.90;;;;;;5094131;28;20168;-75
2021/06/22 04:28:59;;;;;;;15.93;12.53;;;19.50;99.90;;;;;;5094090;28;20507;-75
2021/06/22 04:31:24;;;;;;;14.80;13.20;;;19.60;99.90;;;;;;5093762;28;20191;-75
2021/06/22 04:33:50;;;;;;;16.73;14.90;;;19.60;99.90;;;;;;5094025;28;20202;-75
2021/06/22 04:36:16;;;;;;;16.70;13.60;;;19.60;99.90;;;;;;5093958;28;20627;-75
2021/06/22 04:38:41;;;;;;;16.30;14.80;;;19.70;99.90;;;;;;5093904;28;20167;-75
2021/06/22 04:41:07;;;;;;;18.77;14.80;;;19.60;99.90;;;;;;5093736;28;20199;-75
2021/06/22 04:43:32;;;;;;;20.23;15.30;;;19.60;99.90;;;;;;5093798;28;20255;-75
2021/06/22 04:45:58;;;;;;;16.57;14.63;;;19.70;99.90;;;;;;5093563;28;20181;-75
2021/06/22 04:48:23;;;;;;;17.03;14.47;;;19.50;99.90;;;;;;5093725;28;20181;-75
2021/06/22 04:50:49;;;;;;;20.13;15.33;;;19.50;99.90;;;;;;5093471;28;20655;-75
2021/06/22 04:53:15;;;;;;;17.63;14.73;;;19.40;99.90;;;;;;5093873;28;20171;-75
2021/06/22 04:55:40;;;;;;;19.60;16.23;;;19.50;99.90;;;;;;5093556;28;20424;-75
2021/06/22 04:58:06;;;;;;;19.87;16.17;;;19.30;99.90;;;;;;5093540;28;20173;-75
2021/06/22 05:00:32;;;;;;;27.97;18.00;;;19.40;99.90;;;;;;5093330;28;20173;-75
2021/06/22 05:02:58;;;;;;;24.60;17.53;;;19.40;99.90;;;;;;5093750;28;20201;-75
2021/06/22 05:05:25;;;;;;;29.97;19.97;;;19.30;99.90;;;;;;5094520;28;20633;-75
2021/06/22 05:07:51;;;;;;;23.80;18.00;;;19.20;99.90;;;;;;5093430;28;20420;-75
2021/06/22 05:10:16;;;;;;;33.70;20.30;;;19.30;99.90;;;;;;5093343;28;20889;-75
2021/06/22 05:12:43;;;;;;;25.40;20.40;;;19.10;99.90;;;;;;5093645;28;20212;-75
2021/06/22 05:15:10;;;;;;;29.50;19.97;;;19.00;99.90;;;;;;5093018;28;20225;-75
2021/06/22 05:17:36;;;;;;;28.83;20.03;;;19.00;99.90;;;;;;5093189;28;20412;-75
2021/06/22 05:20:04;;;;;;;28.73;19.60;;;18.70;99.90;;;;;;5093217;28;20469;-75
2021/06/22 05:22:29;;;;;;;25.37;19.57;;;18.50;99.90;;;;;;5074547;28;20457;-76
2021/06/22 05:24:55;;;;;;;24.67;17.63;;;18.50;99.90;;;;;;5093033;28;20436;-75
2021/06/22 05:27:20;;;;;;;26.70;17.73;;;18.50;99.90;;;;;;5092974;28;20168;-75
2021/06/22 05:29:45;;;;;;;21.83;16.10;;;18.40;99.90;;;;;;5074625;28;20174;-75
2021/06/22 05:32:11;;;;;;;21.50;15.77;;;18.60;99.90;;;;;;5092983;28;20189;-74
2021/06/22 05:34:37;;;;;;;22.03;15.37;;;18.70;99.90;;;;;;5092678;28;20234;-76
2021/06/22 05:37:02;;;;;;;15.77;14.10;;;18.60;99.90;;;;;;5093025;28;20172;-75
2021/06/22 05:39:28;;;;;;;18.03;12.57;;;18.60;99.90;;;;;;5092834;28;20208;-76
2021/06/22 05:41:54;;;;;;;14.87;11.13;;;18.60;99.90;;;;;;5092607;28;20197;-76
2021/06/22 05:44:19;;;;;;;17.57;12.50;;;18.70;99.90;;;;;;5092700;28;20198;-75
2021/06/22 05:46:45;;;;;;;16.27;12.17;;;18.40;99.90;;;;;;5092613;28;20164;-76
2021/06/22 05:49:10;;;;;;;17.93;12.53;;;18.40;99.90;;;;;;5092513;28;20172;-76
2021/06/22 05:51:36;;;;;;;17.13;12.93;;;18.30;99.90;;;;;;5092169;28;20294;-76
2021/06/22 05:54:03;;;;;;;12.37;10.90;;;18.30;99.90;;;;;;5092317;28;20195;-75
2021/06/22 05:56:29;;;;;;;14.43;11.67;;;18.30;99.90;;;;;;5092742;28;20170;-75
2021/06/22 05:58:54;;;;;;;16.37;10.27;;;18.30;99.90;;;;;;5092254;28;20418;-75
2021/06/22 06:01:20;;;;;;;17.60;10.97;;;18.40;99.90;;;;;;5092011;28;20201;-75
2021/06/22 06:03:45;;;;;;;11.53;10.33;;;18.60;99.90;;;;;;5092321;28;20167;-75
2021/06/22 06:06:11;;;;;;;14.50;9.87;;;18.40;99.90;;;;;;5092129;28;20171;-76
2021/06/22 06:08:37;;;;;;;14.67;10.03;;;18.30;99.90;;;;;;5092059;28;20173;-75
2021/06/22 06:11:03;;;;;;;13.70;10.13;;;18.20;99.90;;;;;;5091954;28;20200;-75
2021/06/22 06:13:36;;;;;;;10.47;9.43;;;18.30;99.90;;;;;;5091944;28;20406;-75
2021/06/22 06:16:03;;;;;;;12.80;9.50;;;18.30;99.90;;;;;;5091917;28;20395;-74
2021/06/22 06:18:29;;;;;;;11.90;8.70;;;18.30;99.90;;;;;;5091736;28;20927;-74
2021/06/22 06:20:56;;;;;;;9.20;8.30;;;18.40;99.90;;;;;;5091585;28;20559;-77
2021/06/22 06:23:23;;;;;;;10.83;7.77;;;18.50;99.90;;;;;;5092040;28;20153;-76
2021/06/22 06:25:49;;;;;;;10.90;9.80;;;18.50;99.90;;;;;;5091721;28;20403;-76
2021/06/22 06:28:17;;;;;;;14.03;10.47;;;18.40;99.90;;;;;;5091979;28;20913;-76
2021/06/22 06:30:43;;;;;;;11.10;9.53;;;18.30;99.90;;;;;;5091941;28;20179;-75
2021/06/22 06:33:09;;;;;;;11.80;8.43;;;18.40;99.90;;;;;;5091724;28;20413;-75
2021/06/22 06:35:35;;;;;;;8.80;7.93;;;18.40;99.90;;;;;;5091739;28;20167;-77
2021/06/22 06:38:00;;;;;;;7.63;6.80;;;18.40;99.90;;;;;;5091563;28;20398;-75
2021/06/22 06:40:26;;;;;;;7.30;5.87;;;18.40;99.90;;;;;;5091408;28;20203;-75
2021/06/22 06:42:52;;;;;;;7.57;6.77;;;18.30;99.90;;;;;;5091463;28;20238;-75
2021/06/22 06:45:18;;;;;;;10.53;5.40;;;18.40;99.90;;;;;;5090639;28;20568;-76
2021/06/22 06:47:44;;;;;;;7.20;6.23;;;18.50;99.90;;;;;;5091480;28;20430;-76
2021/06/22 06:50:11;;;;;;;6.83;5.90;;;18.50;99.90;;;;;;5091389;28;20486;-76
2021/06/22 06:52:36;;;;;;;7.10;6.60;;;18.80;99.90;;;;;;5091457;28;20781;-75
2021/06/22 06:55:03;;;;;;;7.83;6.83;;;18.80;99.90;;;;;;5091222;28;20405;-76
2021/06/22 06:57:28;;;;;;;8.27;6.67;;;18.90;99.90;;;;;;5091131;28;20606;-75
2021/06/22 06:59:53;;;;;;;6.03;5.50;;;18.70;99.90;;;;;;5091305;28;20402;-76
2021/06/22 07:02:19;;;;;;;6.37;5.87;;;18.70;99.90;;;;;;5091236;28;20369;-76
2021/06/22 07:04:44;;;;;;;6.10;4.90;;;18.70;99.90;;;;;;5091230;28;20171;-75
2021/06/22 07:07:10;;;;;;;7.93;4.87;;;18.80;99.90;;;;;;5091105;28;20190;-76
2021/06/22 07:09:35;;;;;;;6.83;3.70;;;18.50;99.90;;;;;;5091182;28;20642;-75
2021/06/22 07:12:01;;;;;;;5.80;4.37;;;18.60;99.90;;;;;;5072727;28;20686;-75
2021/06/22 07:14:26;;;;;;;6.50;4.90;;;18.80;99.90;;;;;;5091202;28;20176;-75
2021/06/22 07:16:52;;;;;;;5.70;4.93;;;18.90;99.90;;;;;;5091005;28;20179;-75
2021/06/22 07:19:18;;;;;;;6.90;4.93;;;18.90;99.90;;;;;;5091349;28;20494;-75
2021/06/22 07:21:45;;;;;;;5.40;4.17;;;19.00;99.90;;;;;;5073250;28;20241;-75
2021/06/22 07:24:11;;;;;;;6.47;4.17;;;19.30;99.90;;;;;;5091307;28;20771;-75
2021/06/22 07:26:38;;;;;;;4.90;4.30;;;19.30;99.90;;;;;;5091257;28;20435;-75
2021/06/22 07:29:04;;;;;;;6.23;3.40;;;19.50;99.90;;;;;;5091128;28;20167;-75
2021/06/22 07:31:31;;;;;;;3.83;3.13;;;19.70;99.90;;;;;;5090977;28;20738;-75
2021/06/22 07:33:57;;;;;;;4.77;4.10;;;19.20;99.90;;;;;;5091434;28;20405;-76
2021/06/22 07:36:23;;;;;;;5.30;3.77;;;19.30;99.90;;;;;;5092280;28;20428;-76
2021/06/22 07:38:49;;;;;;;5.27;3.60;;;19.10;99.90;;;;;;5073960;28;20440;-76
2021/06/22 07:41:18;;;;;;;4.17;3.50;;;19.00;99.90;;;;;;5074314;28;20679;-76
2021/06/22 07:43:44;;;;;;;3.93;3.63;;;19.40;99.90;;;;;;5092439;28;20171;-76
2021/06/22 07:46:13;;;;;;;5.40;4.03;;;19.10;99.90;;;;;;5093650;28;20759;-76
2021/06/22 07:48:38;;;;;;;4.63;4.23;;;19.30;99.90;;;;;;5093435;28;20399;-76
2021/06/22 07:51:10;;;;;;;10.87;4.70;;;19.30;99.90;;;;;;5093056;28;20431;-76
2021/06/22 07:53:36;;;;;;;4.80;4.40;;;19.30;99.90;;;;;;5075264;28;20639;-76
2021/06/22 07:56:02;;;;;;;5.97;5.27;;;19.40;99.90;;;;;;5092213;28;20409;-76
2021/06/22 07:58:28;;;;;;;6.23;4.93;;;19.30;99.90;;;;;;5078173;28;20232;-76
2021/06/22 08:00:59;;;;;;;4.47;4.03;;;19.20;99.90;;;;;;5077964;28;21025;-76
2021/06/22 08:03:27;;;;;;;4.30;3.90;;;19.10;99.90;;;;;;5096940;28;20161;-76
2021/06/22 08:05:53;;;;;;;4.63;3.50;;;19.00;99.90;;;;;;5097056;28;20461;-77
2021/06/22 08:08:20;;;;;;;3.50;3.20;;;19.10;99.90;;;;;;5077496;28;20925;-77
2021/06/22 08:10:47;;;;;;;5.33;4.10;;;18.90;99.90;;;;;;5096160;28;20955;-76
2021/06/22 08:13:14;;;;;;;3.53;3.23;;;18.90;99.90;;;;;;5077797;28;20781;-76
2021/06/22 08:15:40;;;;;;;5.50;3.60;;;19.00;99.90;;;;;;5095806;28;20931;-75
2021/06/22 08:18:06;;;;;;;4.97;4.47;;;19.10;99.90;;;;;;5095633;28;20402;-77
2021/06/22 08:20:32;;;;;;;3.93;3.63;;;18.80;99.90;;;;;;5077456;28;21181;-76
2021/06/22 08:22:59;;;;;;;8.40;4.43;;;18.70;99.90;;;;;;5095652;28;20482;-76
2021/06/22 08:25:27;;;;;;;5.93;4.60;;;18.70;99.90;;;;;;5077375;28;20920;-76
2021/06/22 08:27:53;;;;;;;6.70;4.40;;;18.80;99.90;;;;;;5077533;28;20511;-75
2021/06/22 08:30:21;;;;;;;9.30;5.40;;;18.70;99.90;;;;;;5077395;28;20560;-75
2021/06/22 08:32:47;;;;;;;6.77;4.40;;;18.50;99.90;;;;;;5095786;28;20404;-75
2021/06/22 08:35:25;;;;;;;4.43;4.03;;;18.40;99.90;;;;;;5096055;28;20403;-75
2021/06/22 08:37:53;;;;;;;5.40;4.40;;;18.40;99.90;;;;;;5096080;28;20541;-75
2021/06/22 08:40:19;;;;;;;8.37;5.57;;;18.30;99.90;;;;;;5095344;28;20400;-76
2021/06/22 08:42:45;;;;;;;5.57;4.80;;;18.30;99.90;;;;;;5095564;28;20462;-76
2021/06/22 08:45:22;;;;;;;5.10;4.60;;;18.30;99.90;;;;;;5077231;28;20407;-75
2021/06/22 08:47:48;;;;;;;6.40;5.80;;;18.30;99.90;;;;;;5076643;28;20418;-75
2021/06/22 08:50:16;;;;;;;5.63;5.13;;;18.20;99.90;;;;;;5094985;28;20398;-76
2021/06/22 08:52:42;;;;;;;6.93;5.77;;;18.20;99.90;;;;;;5094886;28;20227;-75
2021/06/22 08:55:25;;;;;;;7.50;4.40;;;18.20;99.90;;;;;;5095119;28;20497;-75
2021/06/22 08:57:52;;;;;;;4.73;4.33;;;18.30;99.90;;;;;;5095544;28;20846;-76
2021/06/22 09:00:18;;;;;;;5.00;4.50;;;18.30;99.90;;;;;;5095784;28;20411;-75
2021/06/22 09:02:44;;;;;;;4.87;4.47;;;18.30;99.90;;;;;;5094779;28;20479;-76
2021/06/22 09:05:10;;;;;;;5.60;5.10;;;18.30;99.90;;;;;;5094638;28;20251;-75
2021/06/22 09:07:54;;;;;;;6.13;4.53;;;18.30;99.90;;;;;;5094315;28;20181;-76
2021/06/22 09:10:31;;;;;;;4.87;4.47;;;18.10;99.90;;;;;;5094181;28;20176;-76
2021/06/22 09:13:12;;;;;;;6.00;4.50;;;18.00;99.90;;;;;;5094222;28;20399;-75
2021/06/22 09:15:40;;;;;;;5.60;4.00;;;17.90;99.90;;;;;;5094372;28;20411;-76
2021/06/22 09:18:24;;;;;;;4.27;3.87;;;17.90;99.90;;;;;;5075927;28;20411;-76
2021/06/22 09:20:50;;;;;;;7.33;4.30;;;18.00;99.90;;;;;;5075719;28;20431;-76
2021/06/22 09:23:27;;;;;;;5.50;4.17;;;18.10;99.90;;;;;;5093904;28;20450;-75
2021/06/22 09:25:55;;;;;;;4.80;3.37;;;18.10;99.90;;;;;;5076023;28;20417;-75
2021/06/22 09:28:31;;;;;;;7.00;3.60;;;18.20;99.90;;;;;;5094197;28;20406;-76
2021/06/22 09:31:02;;;;;;;6.87;4.20;;;18.30;99.90;;;;;;5093724;28;20931;-77
2021/06/22 09:33:38;;;;;;;5.50;4.07;;;18.30;99.90;;;;;;5093555;28;20388;-78
2021/06/22 09:36:22;;;;;;;5.40;4.17;;;18.40;99.90;;;;;;5093285;28;20399;-75
2021/06/22 09:38:58;;;;;;;5.00;4.60;;;18.50;99.90;;;;;;5093415;28;20457;-75
2021/06/22 09:41:25;;;;;;;3.53;3.10;;;18.60;99.90;;;;;;5093252;28;20450;-75
2021/06/22 09:44:07;;;;;;;4.30;3.90;;;18.60;99.90;;;;;;5093297;28;20453;-75
2021/06/22 09:46:38;;;;;;;5.07;3.50;;;18.50;99.90;;;;;;5093606;28;20775;-76
2021/06/22 09:49:06;;;;;;;7.17;3.80;;;18.50;99.90;;;;;;5093317;28;20425;-75
2021/06/22 09:51:49;;;;;;;6.20;4.20;;;18.50;99.90;;;;;;5074889;28;20447;-76
2021/06/22 09:54:26;;;;;;;5.63;3.53;;;18.40;99.90;;;;;;5075003;28;20425;-75
2021/06/22 09:57:01;;;;;;;4.60;2.97;;;18.60;99.90;;;;;;5074977;28;20791;-75
2021/06/22 09:59:30;;;;;;;6.53;3.77;;;18.70;99.90;;;;;;5093281;28;20497;-76
2021/06/22 10:02:09;;;;;;;7.00;3.70;;;18.80;99.90;;;;;;5092886;28;20532;-75
2021/06/22 10:04:36;;;;;;;5.33;4.43;;;18.70;99.90;;;;;;5093063;28;20399;-76
2021/06/22 10:07:02;;;;;;;3.93;3.23;;;18.90;99.90;;;;;;5093197;28;20408;-76
2021/06/22 10:09:32;;;;;;;5.10;4.30;;;18.90;99.90;;;;;;5074685;28;20484;-76
2021/06/22 10:12:02;;;;;;;5.93;3.60;;;18.90;99.90;;;;;;5092679;28;20933;-76
2021/06/22 10:14:32;;;;;;;3.40;3.10;;;18.70;99.90;;;;;;5093439;28;20408;-76
2021/06/22 10:16:59;;;;;;;4.67;3.73;;;19.10;99.90;;;;;;5093192;28;20408;-76
2021/06/22 10:19:25;;;;;;;4.70;3.57;;;19.20;99.90;;;;;;5092576;28;20776;-76
2021/06/22 10:21:53;;;;;;;4.93;3.63;;;19.40;99.90;;;;;;5092553;28;20463;-76
2021/06/22 10:24:20;;;;;;;4.83;3.20;;;19.50;99.90;;;;;;5093121;28;20439;-77
2021/06/22 10:26:47;;;;;;;3.97;3.10;;;19.40;99.90;;;;;;5074780;28;20784;-77
2021/06/22 10:29:17;;;;;;;3.57;3.20;;;19.20;99.90;;;;;;5074580;28;20410;-77
2021/06/22 10:31:43;;;;;;;6.67;3.90;;;19.50;99.90;;;;;;5092544;28;20468;-76
2021/06/22 10:34:09;;;;;;;4.87;3.27;;;19.50;99.90;;;;;;5093582;28;20408;-74
2021/06/22 10:36:45;;;;;;;9.73;4.10;;;19.50;99.90;;;;;;5094610;28;20421;-76
2021/06/22 10:39:21;;;;;;;4.37;4.00;;;19.60;99.90;;;;;;5093861;28;20249;-78
2021/06/22 10:41:46;;;;;;;3.67;2.97;;;19.80;99.90;;;;;;5092378;28;20866;-77
2021/06/22 10:44:33;;;;;;;5.60;3.60;;;19.70;99.90;;;;;;5074460;28;20413;-77
2021/06/22 10:47:25;;;;;;;6.90;3.80;;;19.60;99.90;;;;;;5091880;28;20203;-77
2021/06/22 10:49:56;;;;;;;7.37;4.40;;;19.30;99.90;;;;;;5091737;28;20845;-76
2021/06/22 10:52:43;;;;;;;4.40;3.43;;;19.40;99.90;;;;;;5091495;28;20822;-77
2021/06/22 10:55:09;;;;;;;5.20;4.00;;;19.30;99.90;;;;;;5091570;28;20763;-77
2021/06/22 10:58:06;;;;;;;4.60;3.77;;;19.40;99.90;;;;;;5092132;28;20408;-77
2021/06/22 11:00:38;;;;;;;7.00;4.40;;;19.50;99.90;;;;;;5073569;28;20504;-76
2021/06/22 11:03:11;;;;;;;4.30;3.90;;;19.60;99.90;;;;;;5092057;28;20450;-76
2021/06/22 11:05:39;;;;;;;4.53;4.13;;;19.70;99.90;;;;;;5091886;28;20402;-76
2021/06/22 11:08:14;;;;;;;13.37;4.50;;;19.90;99.90;;;;;;5091282;28;20407;-76
2021/06/22 11:10:41;;;;;;;4.03;3.70;;;19.60;99.90;;;;;;5091388;28;20404;-77
2021/06/22 11:13:28;;;;;;;7.17;3.77;;;19.40;99.90;;;;;;5073116;28;20483;-77
2021/06/22 11:15:54;;;;;;;5.90;4.10;;;19.40;99.90;;;;;;5073189;28;20429;-77
2021/06/22 11:18:20;;;;;;;4.80;3.80;;;19.40;99.90;;;;;;5091525;28;20448;-75
2021/06/22 11:21:06;;;;;;;3.80;3.20;;;19.40;99.90;;;;;;5091472;28;20429;-77
2021/06/22 11:24:03;;;;;;;4.20;3.77;;;19.50;99.90;;;;;;5073583;28;20403;-77
2021/06/22 11:26:30;;;;;;;5.20;3.60;;;19.50;99.90;;;;;;5091364;28;20398;-76
2021/06/22 11:29:01;;;;;;;5.30;3.40;;;19.20;99.90;;;;;;5091455;28;20886;-76
2021/06/22 11:31:46;;;;;;;6.63;4.07;;;19.40;99.90;;;;;;5094082;28;20530;-77
2021/06/22 11:34:21;;;;;;;4.40;4.00;;;19.50;99.90;;;;;;5095620;28;20849;-77
2021/06/22 11:36:58;;;;;;;5.57;3.30;;;19.50;99.90;;;;;;5095329;28;20437;-76
2021/06/22 11:39:32;;;;;;;5.23;3.00;;;19.50;99.90;;;;;;5100061;28;20403;-77
2021/06/22 11:42:07;;;;;;;5.10;3.87;;;19.60;99.90;;;;;;5095091;28;20446;-77
2021/06/22 11:44:44;;;;;;;3.83;3.27;;;19.70;99.90;;;;;;5095354;28;20405;-77
2021/06/22 11:47:13;;;;;;;4.87;3.77;;;19.80;99.90;;;;;;5095355;28;20403;-77
2021/06/22 11:49:43;;;;;;;6.00;3.50;;;19.60;99.90;;;;;;5096303;28;20469;-77
2021/06/22 11:52:14;;;;;;;5.67;3.43;;;20.10;99.90;;;;;;5097581;28;20457;-77
2021/06/22 11:54:50;;;;;;;4.23;3.77;;;20.30;99.90;;;;;;5077247;28;20951;-76
2021/06/22 11:57:21;;;;;;;5.73;3.50;;;19.80;99.90;;;;;;5094753;28;20406;-77
2021/06/22 11:59:48;;;;;;;9.10;4.20;;;20.20;99.90;;;;;;5095499;28;20414;-77
2021/06/22 12:02:15;;;;;;;4.30;3.90;;;20.30;99.90;;;;;;5096089;28;20457;-77
2021/06/22 12:04:41;;;;;;;9.30;4.63;;;20.10;99.90;;;;;;5096132;28;20910;-78
2021/06/22 12:07:09;;;;;;;4.30;3.80;;;20.60;99.90;;;;;;5079373;28;20410;-76
2021/06/22 12:09:35;;;;;;;4.03;3.63;;;20.90;99.90;;;;;;5097493;28;20462;-76
2021/06/22 12:12:01;;;;;;;4.07;3.47;;;21.00;99.90;;;;;;5078855;28;20433;-78
2021/06/22 12:14:27;;;;;;;7.37;3.70;;;20.70;99.90;;;;;;5095899;28;20452;-75
2021/06/22 12:16:53;;;;;;;3.80;3.50;;;20.20;99.90;;;;;;5095102;28;20472;-78
2021/06/22 12:19:21;;;;;;;6.90;3.77;;;20.40;99.90;;;;;;5094761;28;20164;-77
2021/06/22 12:21:55;;;;;;;5.27;3.00;;;20.50;99.90;;;;;;5094280;28;20449;-77
2021/06/22 12:24:22;;;;;;;3.10;2.73;;;20.40;99.90;;;;;;5094670;28;20401;-77
2021/06/22 12:26:51;;;;;;;3.40;2.63;;;21.00;99.90;;;;;;5095449;28;20444;-77
2021/06/22 12:29:17;;;;;;;5.03;3.20;;;20.70;99.90;;;;;;5094407;28;20762;-77
2021/06/22 12:31:55;;;;;;;4.50;3.20;;;20.40;99.90;;;;;;5094313;28;20515;-76
2021/06/22 12:34:22;;;;;;;4.30;2.80;;;21.00;99.90;;;;;;5095051;28;20401;-77
2021/06/22 12:36:49;;;;;;;4.47;2.70;;;20.80;99.90;;;;;;5094443;28;20543;-77
2021/06/22 12:39:18;;;;;;;4.70;3.23;;;20.70;99.90;;;;;;5096281;28;20409;-77
2021/06/22 12:41:44;;;;;;;4.33;3.93;;;20.70;99.90;;;;;;5078049;28;20487;-77